KAST/AST METAR and TAF weather

Enter ICAO airport designator
Station Type Date Time Source
KAST METAR 2018/06/25 01:55 UTC NOAA

KAST 250155Z AUTO 31015G21KT 10SM CLR 17/13 A2990 RMK AO2 SLP126 T01670133


Station Type Date Time Source
KAST Decoded METAR 2018/06/25 01:55 UTC NOAA

PORT OF ASTORIA AIRPORT, OR, United States (KAST) 46-09N 123-53W 3M
Jun 24, 2018 - 09:55 PM EDT / 2018.06.25 0155 UTC
Wind: from the NW (310 degrees) at 17 MPH (15 KT) gusting to 24 MPH (21 KT):0
Visibility: 10 mile(s):0
Sky conditions: clear
Temperature: 62.1 F (16.7 C)
Dew Point: 55.9 F (13.3 C)
Relative Humidity: 80%
Pressure (altimeter): 29.9 in. Hg (1012 hPa)
ob: KAST 250155Z AUTO 31015G21KT 10SM CLR 17/13 A2990 RMK AO2 SLP126 T01670133
cycle: 2

Station Type Date Time Source
KAST TAF 2018/06/25 02:58 UTC NOAA

TAF
AMD KAST 250158Z 2502/2524 32010KT P6SM SCT006
FM250400 31008KT P6SM BKN008
FM250500 29007KT P6SM BKN008 OVC015
FM250600 26006KT 5SM -RADZ BR SCT008 OVC015
FM250900 28005KT P6SM -SHRA BKN015 BKN025
FM251400 28005KT P6SM BKN025 BKN035
FM251600 28008KT P6SM SCT025 BKN035


Example: see airport list